createdAt,value
2017-08-23T00:01:49.482Z,4.20
2017-08-23T00:04:15.736Z,4.47
2017-08-23T00:06:42.027Z,4.00
2017-08-23T00:09:08.297Z,3.83
2017-08-23T00:11:34.539Z,4.13
2017-08-23T00:14:00.765Z,4.80
2017-08-23T00:16:27.994Z,3.87
2017-08-23T00:18:54.258Z,3.43
2017-08-23T00:21:20.490Z,4.10
2017-08-23T00:23:46.776Z,4.23
2017-08-23T00:26:13.043Z,4.47
2017-08-23T00:28:46.206Z,4.20
2017-08-23T00:31:12.463Z,4.20
2017-08-23T00:33:38.714Z,4.47
2017-08-23T00:36:05.042Z,4.03
2017-08-23T00:38:44.520Z,4.10
2017-08-23T00:41:12.082Z,4.43
2017-08-23T00:43:38.334Z,4.97
2017-08-23T00:46:04.590Z,4.37
2017-08-23T00:48:30.865Z,4.00
2017-08-23T00:50:57.101Z,3.87
2017-08-23T00:53:23.350Z,4.60
2017-08-23T00:55:49.653Z,4.90
2017-08-23T00:58:15.932Z,4.23
2017-08-23T01:00:42.186Z,5.03
2017-08-23T01:03:08.483Z,4.53
2017-08-23T01:05:34.741Z,3.97
2017-08-23T01:08:00.982Z,4.40
2017-08-23T01:10:27.447Z,3.73
2017-08-23T01:12:53.698Z,4.80
2017-08-23T01:15:19.950Z,3.37
2017-08-23T01:17:46.715Z,4.20
2017-08-23T01:20:12.994Z,3.80
2017-08-23T01:22:39.225Z,3.40
2017-08-23T01:25:05.527Z,3.87
2017-08-23T01:27:31.782Z,3.50
2017-08-23T01:29:58.147Z,3.20
2017-08-23T01:32:24.575Z,3.83
2017-08-23T01:34:50.834Z,3.60
2017-08-23T01:37:17.198Z,4.40
2017-08-23T01:39:44.246Z,3.90
2017-08-23T01:42:22.190Z,3.73
2017-08-23T01:44:48.478Z,4.20
2017-08-23T01:47:14.754Z,3.23
2017-08-23T01:49:41.046Z,4.03
2017-08-23T01:52:07.404Z,3.97
2017-08-23T01:54:33.651Z,4.30
2017-08-23T01:56:59.890Z,4.33
2017-08-23T01:59:26.656Z,4.23
2017-08-23T02:01:52.909Z,4.30
2017-08-23T02:04:19.161Z,4.10
2017-08-23T02:06:52.318Z,4.07
2017-08-23T02:09:18.574Z,4.33
2017-08-23T02:11:44.847Z,3.67
2017-08-23T02:14:11.135Z,3.37
2017-08-23T02:16:37.375Z,3.90
2017-08-23T02:19:03.638Z,3.80
2017-08-23T02:21:30.751Z,4.77
2017-08-23T02:23:57.007Z,4.30
2017-08-23T02:26:23.259Z,3.70
2017-08-23T02:28:50.348Z,4.17
2017-08-23T02:31:16.701Z,4.43
2017-08-23T02:33:42.969Z,4.10
2017-08-23T02:36:09.250Z,3.90
2017-08-23T02:38:35.519Z,3.60
2017-08-23T02:41:01.773Z,5.33
2017-08-23T02:43:32.261Z,4.63
2017-08-23T02:45:58.532Z,4.07
2017-08-23T02:48:24.790Z,4.67
2017-08-23T02:50:51.099Z,5.30
2017-08-23T02:53:17.362Z,6.70
2017-08-23T02:55:43.639Z,6.47
2017-08-23T02:58:10.796Z,6.23
2017-08-23T03:00:37.039Z,6.27
2017-08-23T03:03:03.304Z,5.43
2017-08-23T03:05:30.515Z,5.20
2017-08-23T03:07:56.754Z,4.50
2017-08-23T03:10:23.006Z,4.67
2017-08-23T03:12:49.292Z,5.00
2017-08-23T03:15:15.534Z,5.50
2017-08-23T03:17:41.805Z,4.27
2017-08-23T03:20:08.102Z,4.23
2017-08-23T03:22:34.413Z,3.50
2017-08-23T03:25:00.700Z,4.03
2017-08-23T03:27:27.349Z,4.50
2017-08-23T03:29:53.673Z,4.00
2017-08-23T03:32:19.934Z,4.37
2017-08-23T03:34:46.202Z,4.70
2017-08-23T03:37:12.452Z,4.40
2017-08-23T03:39:38.756Z,4.83
2017-08-23T03:42:05.522Z,4.87
2017-08-23T03:44:33.424Z,4.80
2017-08-23T03:46:59.687Z,4.80
2017-08-23T03:49:27.968Z,5.57
2017-08-23T03:51:54.254Z,4.53
2017-08-23T03:54:20.520Z,4.10
2017-08-23T03:56:48.501Z,4.53
2017-08-23T03:59:14.787Z,5.07
2017-08-23T04:01:41.081Z,6.07
2017-08-23T04:04:07.375Z,6.30
2017-08-23T04:06:33.705Z,6.03
2017-08-23T04:08:59.987Z,4.80
2017-08-23T04:11:27.121Z,5.80
2017-08-23T04:13:53.373Z,5.00
2017-08-23T04:16:19.643Z,5.40
2017-08-23T04:18:45.923Z,5.47
2017-08-23T04:21:12.390Z,5.83
2017-08-23T04:23:38.747Z,4.77
2017-08-23T04:26:05.062Z,4.90
2017-08-23T04:28:31.323Z,5.60
2017-08-23T04:30:57.563Z,5.47
2017-08-23T04:33:23.877Z,8.70
2017-08-23T04:35:50.150Z,8.60
2017-08-23T04:38:16.447Z,7.43
2017-08-23T04:40:42.750Z,13.10
2017-08-23T04:43:08.998Z,9.40
2017-08-23T04:45:36.548Z,5.90
2017-08-23T04:48:02.986Z,7.20
2017-08-23T04:50:29.250Z,6.23
2017-08-23T04:52:55.562Z,5.70
2017-08-23T04:55:21.951Z,5.83
2017-08-23T04:57:48.225Z,6.20
2017-08-23T05:00:14.558Z,6.40
2017-08-23T05:02:40.885Z,6.33
2017-08-23T05:05:07.181Z,6.37
2017-08-23T05:07:33.515Z,6.47
2017-08-23T05:10:00.058Z,8.90
2017-08-23T05:12:26.378Z,8.43
2017-08-23T05:14:52.666Z,7.67
2017-08-23T05:17:19.086Z,7.80
2017-08-23T05:19:45.415Z,6.90
2017-08-23T05:22:11.710Z,7.67
2017-08-23T05:24:38.183Z,7.90
2017-08-23T05:27:04.443Z,7.97
2017-08-23T05:29:30.722Z,7.43
2017-08-23T05:31:57.134Z,7.63
2017-08-23T05:34:23.420Z,8.73
2017-08-23T05:36:49.746Z,9.27
2017-08-23T05:39:16.172Z,9.60
2017-08-23T05:41:42.471Z,9.73
2017-08-23T05:44:08.826Z,11.10
2017-08-23T05:46:36.564Z,8.53
2017-08-23T05:49:02.842Z,11.83
2017-08-23T05:51:29.085Z,10.60
2017-08-23T05:53:55.418Z,12.70
2017-08-23T05:56:21.740Z,12.37
2017-08-23T05:58:48.026Z,10.70
2017-08-23T06:01:14.846Z,10.90
2017-08-23T06:03:41.153Z,11.73
2017-08-23T06:06:07.398Z,12.30
2017-08-23T06:08:33.677Z,13.40
2017-08-23T06:10:59.965Z,14.40
2017-08-23T06:13:26.270Z,13.93
2017-08-23T06:15:52.577Z,15.33
2017-08-23T06:18:18.866Z,12.63
2017-08-23T06:20:45.140Z,14.57
2017-08-23T06:23:11.990Z,14.43
2017-08-23T06:25:38.265Z,15.87
2017-08-23T06:28:04.547Z,14.70
2017-08-23T06:30:30.824Z,13.93
2017-08-23T06:32:57.114Z,14.17
2017-08-23T06:35:23.379Z,14.30
2017-08-23T06:37:49.914Z,14.80
2017-08-23T06:40:16.207Z,14.87
2017-08-23T06:42:42.498Z,14.70
2017-08-23T06:45:08.821Z,16.33
2017-08-23T06:47:36.383Z,15.20
2017-08-23T06:50:03.355Z,15.17
2017-08-23T06:52:29.678Z,15.60
2017-08-23T06:54:55.918Z,14.63
2017-08-23T06:57:22.202Z,16.43
2017-08-23T06:59:48.514Z,14.63
2017-08-23T07:02:14.781Z,14.23
2017-08-23T07:04:41.066Z,13.43
2017-08-23T07:07:07.894Z,13.77
2017-08-23T07:09:34.190Z,13.73
2017-08-23T07:12:00.461Z,13.13
2017-08-23T07:14:27.557Z,14.23
2017-08-23T07:16:54.010Z,13.43
2017-08-23T07:19:20.294Z,13.10
2017-08-23T07:21:46.594Z,12.70
2017-08-23T07:24:12.873Z,13.53
2017-08-23T07:26:39.151Z,13.17
2017-08-23T07:29:06.293Z,10.80
2017-08-23T07:31:34.570Z,11.07
2017-08-23T07:34:03.614Z,9.77
2017-08-23T07:36:31.444Z,11.40
2017-08-23T07:38:57.694Z,10.53
2017-08-23T07:41:23.999Z,9.30
2017-08-23T07:43:50.287Z,8.50
2017-08-23T07:46:16.575Z,7.70
2017-08-23T07:48:43.927Z,7.57
2017-08-23T07:51:10.715Z,8.43
2017-08-23T07:53:36.999Z,10.00
2017-08-23T07:56:04.066Z,9.57
2017-08-23T07:58:30.414Z,10.20
2017-08-23T08:00:56.668Z,11.13
2017-08-23T08:03:22.913Z,11.30
2017-08-23T08:05:49.214Z,11.50
2017-08-23T08:08:15.470Z,13.57
2017-08-23T08:10:41.747Z,13.10
2017-08-23T08:13:09.026Z,11.27
2017-08-23T08:15:35.307Z,13.23
2017-08-23T08:18:01.552Z,12.70
2017-08-23T08:20:28.584Z,14.07
2017-08-23T08:22:54.834Z,14.10
2017-08-23T08:25:21.078Z,13.43
2017-08-23T08:27:47.404Z,12.80
2017-08-23T08:30:13.687Z,14.87
2017-08-23T08:32:39.981Z,12.30
2017-08-23T08:35:07.034Z,10.23
2017-08-23T08:37:33.304Z,8.30
2017-08-23T08:39:59.562Z,8.77
2017-08-23T08:42:25.883Z,8.30
2017-08-23T08:44:52.127Z,8.20
2017-08-23T08:47:18.370Z,7.20
2017-08-23T08:49:58.475Z,7.30
2017-08-23T08:52:25.676Z,7.70
2017-08-23T08:54:51.926Z,6.93
2017-08-23T08:57:18.722Z,7.07
2017-08-23T08:59:44.974Z,5.60
2017-08-23T09:02:11.218Z,6.93
2017-08-23T09:04:37.654Z,5.30
2017-08-23T09:07:03.914Z,4.23
2017-08-23T09:09:30.227Z,5.03
2017-08-23T09:11:56.538Z,6.87
2017-08-23T09:14:22.970Z,6.60
2017-08-23T09:16:49.242Z,6.63
2017-08-23T09:19:16.346Z,3.50
2017-08-23T09:21:42.609Z,3.63
2017-08-23T09:24:08.867Z,5.47
2017-08-23T09:26:35.439Z,4.00
2017-08-23T09:29:01.683Z,3.70
2017-08-23T09:31:27.963Z,2.80
2017-08-23T09:33:54.265Z,3.57
2017-08-23T09:36:20.525Z,2.87
2017-08-23T09:38:46.775Z,3.27
2017-08-23T09:41:13.946Z,3.10
2017-08-23T09:43:40.198Z,4.07
2017-08-23T09:46:06.466Z,3.50
2017-08-23T09:48:32.779Z,3.77
2017-08-23T09:50:59.093Z,3.03
2017-08-23T09:53:38.567Z,4.80
2017-08-23T09:56:16.700Z,3.50
2017-08-23T09:58:43.010Z,4.67
2017-08-23T10:01:09.305Z,2.70
2017-08-23T10:03:36.433Z,4.80
2017-08-23T10:06:02.902Z,4.07
2017-08-23T10:08:29.174Z,3.40
2017-08-23T10:10:55.421Z,3.23
2017-08-23T10:13:21.674Z,2.80
2017-08-23T10:15:47.926Z,4.50
2017-08-23T10:18:14.174Z,4.37
2017-08-23T10:20:40.914Z,2.97
2017-08-23T10:23:07.199Z,3.17
2017-08-23T10:25:33.487Z,3.57
2017-08-23T10:27:59.915Z,2.67
2017-08-23T10:30:26.170Z,2.93
2017-08-23T10:32:52.414Z,3.00
2017-08-23T10:35:18.762Z,3.30
2017-08-23T10:37:45.015Z,2.40
2017-08-23T10:40:11.278Z,2.90
2017-08-23T10:42:37.839Z,3.03
2017-08-23T10:45:04.106Z,3.30
2017-08-23T10:47:30.329Z,2.27
2017-08-23T10:49:56.617Z,2.83
2017-08-23T10:52:22.867Z,2.57
2017-08-23T10:54:49.126Z,2.60
2017-08-23T10:57:16.299Z,2.13
2017-08-23T10:59:42.542Z,2.17
2017-08-23T11:02:08.801Z,3.60
2017-08-23T11:04:35.367Z,2.97
2017-08-23T11:07:01.663Z,2.83
2017-08-23T11:09:27.929Z,3.10
2017-08-23T11:11:54.249Z,3.20
2017-08-23T11:14:20.522Z,2.67
2017-08-23T11:16:46.770Z,2.70
2017-08-23T11:19:13.264Z,2.60
2017-08-23T11:21:39.569Z,2.87
2017-08-23T11:24:05.846Z,2.20
2017-08-23T11:26:32.545Z,3.60
2017-08-23T11:28:58.838Z,2.70
2017-08-23T11:31:25.107Z,3.00
2017-08-23T11:33:51.377Z,4.30
2017-08-23T11:36:17.639Z,2.57
2017-08-23T11:38:43.950Z,2.90
2017-08-23T11:41:10.243Z,3.20
2017-08-23T11:43:36.528Z,3.07
2017-08-23T11:46:02.782Z,4.37
2017-08-23T11:48:29.131Z,3.37
2017-08-23T11:50:55.370Z,2.70
2017-08-23T11:53:21.650Z,2.53
2017-08-23T11:55:48.150Z,2.20
2017-08-23T11:58:25.458Z,2.50
2017-08-23T12:00:51.755Z,1.87
2017-08-23T12:03:18.008Z,1.97
2017-08-23T12:05:44.326Z,2.70
2017-08-23T12:08:11.370Z,2.30
2017-08-23T12:10:37.628Z,2.77
2017-08-23T12:13:03.922Z,2.33
2017-08-23T12:15:30.210Z,2.33
2017-08-23T12:17:56.462Z,4.67
2017-08-23T12:20:22.749Z,2.17
2017-08-23T12:22:49.034Z,2.40
2017-08-23T12:25:15.335Z,2.20
2017-08-23T12:27:41.590Z,2.80
2017-08-23T12:30:08.231Z,1.97
2017-08-23T12:32:34.486Z,2.40
2017-08-23T12:35:00.730Z,2.73
2017-08-23T12:37:27.108Z,2.10
2017-08-23T12:39:53.385Z,2.70
2017-08-23T12:42:19.642Z,3.07
2017-08-23T12:44:46.398Z,2.53
2017-08-23T12:47:12.658Z,2.90
2017-08-23T12:49:38.903Z,1.40
2017-08-23T12:52:05.244Z,2.27
2017-08-23T12:54:32.550Z,1.30
2017-08-23T12:56:58.893Z,2.00
2017-08-23T12:59:37.486Z,1.77
2017-08-23T13:02:03.766Z,2.30
2017-08-23T13:04:30.043Z,2.87
2017-08-23T13:06:56.466Z,2.37
2017-08-23T13:09:22.731Z,4.00
2017-08-23T13:11:48.967Z,2.80
2017-08-23T13:14:15.522Z,2.27
2017-08-23T13:16:41.774Z,2.10
2017-08-23T13:19:08.042Z,2.00
2017-08-23T13:21:34.306Z,2.73
2017-08-23T13:24:00.544Z,2.27
2017-08-23T13:26:26.846Z,6.63
2017-08-23T13:28:53.162Z,3.77
2017-08-23T13:31:19.460Z,2.30
2017-08-23T13:33:45.753Z,2.40
2017-08-23T13:36:12.931Z,1.80
2017-08-23T13:38:39.174Z,3.13
2017-08-23T13:41:05.434Z,2.40
2017-08-23T13:43:31.761Z,2.30
2017-08-23T13:45:58.034Z,2.20
2017-08-23T13:48:24.344Z,2.27
2017-08-23T13:50:51.006Z,2.13
2017-08-23T13:53:17.256Z,3.30
2017-08-23T13:55:43.511Z,2.40
2017-08-23T13:58:10.188Z,2.63
2017-08-23T14:00:37.918Z,1.77
2017-08-23T14:03:04.199Z,1.17
2017-08-23T14:05:30.566Z,2.27
2017-08-23T14:07:56.821Z,1.97
2017-08-23T14:10:23.092Z,2.17
2017-08-23T14:12:49.626Z,2.20
2017-08-23T14:15:15.878Z,2.27
2017-08-23T14:17:42.227Z,2.57
2017-08-23T14:20:08.742Z,3.20
2017-08-23T14:22:35.024Z,5.40
2017-08-23T14:25:01.301Z,5.10
2017-08-23T14:27:27.611Z,3.47
2017-08-23T14:29:53.900Z,3.63
2017-08-23T14:32:20.150Z,3.87
2017-08-23T14:34:46.430Z,3.60
2017-08-23T14:37:12.708Z,4.40
2017-08-23T14:39:39.049Z,3.23
2017-08-23T14:42:05.382Z,2.87
2017-08-23T14:44:31.682Z,3.70
2017-08-23T14:46:57.994Z,2.17
2017-08-23T14:49:25.318Z,1.80
2017-08-23T14:51:51.562Z,1.83
2017-08-23T14:54:17.816Z,1.67
2017-08-23T14:56:44.299Z,1.40
2017-08-23T14:59:10.559Z,1.90
2017-08-23T15:01:37.418Z,2.07
2017-08-23T15:04:04.063Z,2.07
2017-08-23T15:06:30.471Z,2.43
2017-08-23T15:08:56.744Z,3.37
2017-08-23T15:11:23.181Z,2.00
2017-08-23T15:13:49.510Z,2.13
2017-08-23T15:16:15.754Z,2.10
2017-08-23T15:18:42.055Z,2.97
2017-08-23T15:21:08.428Z,1.90
2017-08-23T15:23:34.769Z,2.33
2017-08-23T15:26:01.599Z,3.27
2017-08-23T15:28:28.619Z,1.73
2017-08-23T15:30:55.034Z,3.23
2017-08-23T15:33:21.318Z,2.50
2017-08-23T15:35:47.595Z,4.73
2017-08-23T15:38:13.842Z,3.27
2017-08-23T15:40:40.103Z,2.80
2017-08-23T15:43:06.402Z,2.20
2017-08-23T15:45:32.693Z,2.03
2017-08-23T15:47:59.057Z,5.20
2017-08-23T15:50:25.303Z,3.87
2017-08-23T15:52:51.590Z,2.37
2017-08-23T15:55:17.886Z,2.40
2017-08-23T15:57:44.166Z,2.27
2017-08-23T16:00:10.463Z,2.57
2017-08-23T16:02:48.190Z,2.60
2017-08-23T16:05:14.512Z,3.40
2017-08-23T16:07:40.767Z,2.97
2017-08-23T16:10:07.715Z,2.20
2017-08-23T16:12:33.959Z,2.17
2017-08-23T16:15:00.252Z,2.63
2017-08-23T16:17:26.542Z,3.07
2017-08-23T16:19:52.823Z,2.87
2017-08-23T16:22:19.095Z,4.30
2017-08-23T16:24:45.426Z,2.67
2017-08-23T16:27:11.683Z,2.50
2017-08-23T16:29:37.966Z,2.53
2017-08-23T16:32:05.351Z,3.20
2017-08-23T16:34:31.807Z,4.77
2017-08-23T16:36:58.199Z,5.93
2017-08-23T16:39:24.649Z,3.60
2017-08-23T16:41:50.927Z,3.50
2017-08-23T16:44:17.220Z,4.50
2017-08-23T16:46:43.506Z,3.10
2017-08-23T16:49:09.776Z,3.57
2017-08-23T16:51:36.030Z,3.50
2017-08-23T16:54:03.118Z,3.13
2017-08-23T16:56:29.494Z,5.30
2017-08-23T16:58:55.839Z,10.20
2017-08-23T17:01:23.346Z,5.40
2017-08-23T17:03:50.294Z,3.40
2017-08-23T17:06:16.568Z,3.83
2017-08-23T17:08:42.875Z,4.27
2017-08-23T17:11:09.158Z,4.83
2017-08-23T17:13:35.429Z,6.60
2017-08-23T17:16:01.735Z,4.90
2017-08-23T17:18:28.671Z,4.93
2017-08-23T17:20:54.983Z,4.60
2017-08-23T17:23:21.254Z,4.27
2017-08-23T17:25:47.498Z,3.53
2017-08-23T17:28:13.778Z,3.73
2017-08-23T17:30:40.174Z,6.47
2017-08-23T17:33:06.444Z,8.00
2017-08-23T17:35:32.790Z,5.77
2017-08-23T17:37:59.378Z,3.70
2017-08-23T17:40:25.782Z,3.47
2017-08-23T17:42:52.061Z,3.83
2017-08-23T17:45:18.386Z,4.13
2017-08-23T17:47:44.673Z,3.43
2017-08-23T17:50:11.062Z,3.00
2017-08-23T17:52:37.551Z,3.20
2017-08-23T17:55:03.863Z,3.00
2017-08-23T17:57:30.132Z,3.47
2017-08-23T17:59:56.509Z,4.50
2017-08-23T18:02:22.762Z,5.50
2017-08-23T18:04:59.666Z,5.60
2017-08-23T18:07:25.914Z,6.10
2017-08-23T18:09:52.171Z,3.90
2017-08-23T18:12:18.606Z,3.90
2017-08-23T18:14:44.856Z,3.47
2017-08-23T18:17:11.114Z,2.90
2017-08-23T18:19:38.054Z,3.37
2017-08-23T18:22:04.350Z,26.93
2017-08-23T18:24:30.675Z,18.53
2017-08-23T18:26:57.029Z,4.23
2017-08-23T18:29:23.311Z,3.50
2017-08-23T18:31:49.625Z,4.67
2017-08-23T18:34:15.890Z,5.23
2017-08-23T18:36:42.163Z,4.63
2017-08-23T18:39:08.496Z,4.83
2017-08-23T18:41:35.369Z,4.47
2017-08-23T18:44:01.762Z,4.53
2017-08-23T18:46:28.026Z,3.50
2017-08-23T18:48:54.306Z,4.10
2017-08-23T18:51:20.591Z,3.90
2017-08-23T18:53:46.860Z,3.40
2017-08-23T18:56:13.260Z,3.67
2017-08-23T18:58:39.583Z,4.30
2017-08-23T19:01:05.884Z,6.80
2017-08-23T19:03:32.755Z,30.47
2017-08-23T19:06:01.059Z,36.00
2017-08-23T19:08:27.344Z,8.07
2017-08-23T19:10:53.650Z,5.23
2017-08-23T19:13:19.923Z,4.17
2017-08-23T19:15:46.381Z,3.70
2017-08-23T19:18:12.901Z,4.00
2017-08-23T19:20:39.187Z,3.53
2017-08-23T19:23:05.535Z,3.90
2017-08-23T19:25:31.892Z,4.80
2017-08-23T19:27:58.191Z,5.33
2017-08-23T19:30:24.498Z,4.70
2017-08-23T19:32:50.917Z,3.40
2017-08-23T19:35:17.169Z,3.37
2017-08-23T19:37:43.527Z,4.60
2017-08-23T19:40:09.852Z,3.90
2017-08-23T19:42:36.276Z,5.70
2017-08-23T19:45:02.541Z,45.60
2017-08-23T19:47:29.411Z,41.10
2017-08-23T19:49:56.662Z,14.30
2017-08-23T19:52:22.923Z,6.43
2017-08-23T19:54:49.291Z,4.80
2017-08-23T19:57:15.652Z,4.43
2017-08-23T19:59:41.908Z,3.90
2017-08-23T20:02:08.237Z,3.30
2017-08-23T20:04:34.598Z,3.60
2017-08-23T20:07:01.814Z,3.50
2017-08-23T20:09:29.072Z,4.00
2017-08-23T20:11:55.355Z,4.03
2017-08-23T20:14:21.638Z,3.57
2017-08-23T20:16:47.927Z,3.50
2017-08-23T20:19:15.973Z,3.80
2017-08-23T20:21:42.335Z,4.10
2017-08-23T20:24:08.766Z,3.60
2017-08-23T20:26:35.027Z,3.73
2017-08-23T20:29:01.293Z,3.63
2017-08-23T20:31:27.678Z,4.90
2017-08-23T20:33:53.917Z,4.10
2017-08-23T20:36:20.442Z,3.87
2017-08-23T20:38:46.990Z,18.93
2017-08-23T20:41:13.266Z,18.97
2017-08-23T20:43:39.584Z,28.40
2017-08-23T20:46:06.028Z,20.13
2017-08-23T20:48:32.302Z,10.50
2017-08-23T20:50:59.654Z,8.50
2017-08-23T20:53:26.434Z,4.90
2017-08-23T20:55:52.714Z,4.20
2017-08-23T20:58:18.981Z,4.20
2017-08-23T21:00:45.428Z,4.60
2017-08-23T21:03:11.693Z,4.47
2017-08-23T21:05:37.973Z,3.50
2017-08-23T21:08:05.390Z,4.07
2017-08-23T21:10:31.624Z,3.97
2017-08-23T21:12:57.891Z,3.20
2017-08-23T21:15:25.051Z,3.70
2017-08-23T21:17:51.342Z,3.60
2017-08-23T21:20:17.636Z,4.03
2017-08-23T21:22:44.120Z,3.40
2017-08-23T21:25:10.374Z,3.63
2017-08-23T21:27:36.658Z,4.20
2017-08-23T21:30:03.754Z,3.53
2017-08-23T21:32:30.009Z,3.30
2017-08-23T21:34:56.262Z,3.63
2017-08-23T21:37:23.049Z,2.90
2017-08-23T21:39:49.319Z,3.70
2017-08-23T21:42:15.623Z,3.27
2017-08-23T21:44:41.917Z,3.37
2017-08-23T21:47:08.169Z,4.40
2017-08-23T21:49:34.518Z,3.90
2017-08-23T21:52:00.869Z,4.07
2017-08-23T21:54:27.141Z,3.40
2017-08-23T21:56:53.394Z,3.83
2017-08-23T21:59:19.977Z,3.70
2017-08-23T22:01:46.274Z,3.23
2017-08-23T22:04:12.600Z,2.77
2017-08-23T22:06:38.888Z,3.87
2017-08-23T22:09:05.746Z,3.27
2017-08-23T22:11:31.994Z,3.07
2017-08-23T22:13:58.310Z,3.20
2017-08-23T22:16:24.585Z,3.13
2017-08-23T22:18:50.854Z,2.70
2017-08-23T22:21:17.183Z,2.83
2017-08-23T22:23:43.449Z,2.63
2017-08-23T22:26:09.710Z,3.07
2017-08-23T22:28:35.982Z,2.93
2017-08-23T22:31:02.235Z,3.13
2017-08-23T22:33:28.525Z,3.50
2017-08-23T22:35:54.902Z,3.30
2017-08-23T22:38:21.163Z,3.40
2017-08-23T22:40:47.425Z,3.40
2017-08-23T22:43:14.350Z,3.07
2017-08-23T22:45:40.607Z,2.63
2017-08-23T22:48:06.885Z,3.40
2017-08-23T22:50:33.278Z,3.20
2017-08-23T22:52:59.550Z,2.93
2017-08-23T22:55:25.837Z,2.80
2017-08-23T22:57:52.122Z,2.30
2017-08-23T23:00:18.422Z,3.43
2017-08-23T23:02:44.698Z,3.20
2017-08-23T23:05:11.039Z,3.80
2017-08-23T23:07:37.267Z,3.27
2017-08-23T23:10:03.933Z,3.13
2017-08-23T23:12:30.392Z,3.13
2017-08-23T23:14:56.651Z,2.80
2017-08-23T23:17:22.936Z,2.67
2017-08-23T23:19:49.232Z,3.63
2017-08-23T23:22:15.487Z,3.13
2017-08-23T23:24:41.750Z,2.70
2017-08-23T23:27:08.724Z,2.80
2017-08-23T23:29:34.966Z,3.03
2017-08-23T23:32:01.217Z,3.07
2017-08-23T23:34:27.494Z,3.13
2017-08-23T23:36:53.754Z,3.00
2017-08-23T23:39:20.058Z,3.57
2017-08-23T23:41:46.364Z,3.33
2017-08-23T23:44:12.626Z,2.70
2017-08-23T23:46:38.888Z,3.17
2017-08-23T23:49:05.726Z,2.80
2017-08-23T23:51:32.000Z,2.43
2017-08-23T23:53:58.267Z,2.33
2017-08-23T23:56:24.623Z,2.50
2017-08-23T23:58:50.885Z,2.90
